createdAt,value
2018-11-13T00:02:46.013Z,998.63
2018-11-13T00:12:47.327Z,998.78
2018-11-13T00:22:46.018Z,998.62
2018-11-13T00:32:45.968Z,998.71
2018-11-13T00:42:45.957Z,998.79
2018-11-13T00:52:46.029Z,998.80
2018-11-13T01:02:46.048Z,999.18
2018-11-13T01:12:45.825Z,999.21
2018-11-13T01:22:45.963Z,999.36
2018-11-13T01:32:45.976Z,999.08
2018-11-13T01:42:45.986Z,999.00
2018-11-13T01:52:46.033Z,999.31
2018-11-13T02:02:49.664Z,999.34
2018-11-13T02:12:46.888Z,999.38
2018-11-13T02:22:45.976Z,999.25
2018-11-13T02:32:47.003Z,999.34
2018-11-13T02:42:46.239Z,999.11
2018-11-13T02:52:45.991Z,999.22
2018-11-13T03:02:54.563Z,999.54
2018-11-13T03:12:46.012Z,999.60
2018-11-13T03:22:45.994Z,999.60
2018-11-13T03:32:45.960Z,999.35
2018-11-13T03:42:46.001Z,999.36
2018-11-13T03:52:45.972Z,999.41
2018-11-13T04:02:45.939Z,999.43
2018-11-13T04:12:46.008Z,999.35
2018-11-13T04:22:45.955Z,999.61
2018-11-13T04:32:45.944Z,999.72
2018-11-13T04:42:45.964Z,999.77
2018-11-13T04:52:45.928Z,999.92
2018-11-13T05:02:46.005Z,999.98
2018-11-13T05:12:46.052Z,1000.04
2018-11-13T05:22:46.553Z,1000.12
2018-11-13T05:32:45.950Z,1000.10
2018-11-13T05:42:45.941Z,1000.32
2018-11-13T05:52:46.076Z,1000.24
2018-11-13T06:02:46.029Z,1000.38
2018-11-13T06:12:46.122Z,1000.64
2018-11-13T06:22:46.002Z,1000.69
2018-11-13T06:32:45.988Z,1000.93
2018-11-13T06:42:45.970Z,1001.12
2018-11-13T06:52:45.927Z,1001.41
2018-11-13T07:02:45.978Z,1001.52
2018-11-13T07:12:45.995Z,1001.75
2018-11-13T07:22:45.961Z,1001.82
2018-11-13T07:32:45.925Z,1001.88
2018-11-13T07:42:46.085Z,1002.02
2018-11-13T07:52:46.859Z,1002.02
2018-11-13T08:02:45.857Z,1002.16
2018-11-13T08:12:46.115Z,1002.25
2018-11-13T08:22:46.008Z,1002.32
2018-11-13T08:32:46.054Z,1002.31
2018-11-13T08:42:45.967Z,1002.36
2018-11-13T08:52:46.138Z,1002.37
2018-11-13T09:02:46.114Z,1002.62
2018-11-13T09:12:45.937Z,1002.76
2018-11-13T09:22:46.138Z,1002.91
2018-11-13T09:32:45.945Z,1003.05
2018-11-13T09:42:46.082Z,1003.20
2018-11-13T09:52:45.914Z,1003.28
2018-11-13T10:02:46.873Z,1003.44
2018-11-13T10:12:46.056Z,1003.50
2018-11-13T10:22:46.146Z,1003.65
2018-11-13T10:32:45.988Z,1003.60
2018-11-13T10:42:45.995Z,1003.84
2018-11-13T10:52:46.058Z,1003.81
2018-11-13T11:02:46.025Z,1003.64
2018-11-13T11:12:46.027Z,1003.73
2018-11-13T11:22:46.318Z,1003.76
2018-11-13T11:32:45.976Z,1003.71
2018-11-13T11:42:47.082Z,1003.75
2018-11-13T11:52:46.094Z,1003.78
2018-11-13T12:02:46.015Z,1003.89
2018-11-13T12:12:46.057Z,1003.92
2018-11-13T12:22:46.060Z,1004.32
2018-11-13T12:32:45.943Z,1004.31
2018-11-13T12:42:46.917Z,1004.40
2018-11-13T12:52:46.118Z,1004.51
2018-11-13T13:02:46.034Z,1004.63
2018-11-13T13:12:46.099Z,1004.67
2018-11-13T13:22:46.086Z,1004.71
2018-11-13T13:32:46.069Z,1004.81
2018-11-13T13:42:46.059Z,1004.93
2018-11-13T13:52:46.223Z,1004.87
2018-11-13T14:02:46.061Z,1004.94
2018-11-13T14:12:45.987Z,1005.14
2018-11-13T14:22:46.114Z,1005.26
2018-11-13T14:32:46.098Z,1005.32
2018-11-13T14:42:46.214Z,1005.51
2018-11-13T14:52:46.041Z,1005.82
2018-11-13T15:02:46.041Z,1005.92
2018-11-13T15:12:46.071Z,1006.06
2018-11-13T15:22:46.100Z,1006.18
2018-11-13T15:32:46.201Z,1006.33
2018-11-13T15:42:46.107Z,1006.42
2018-11-13T15:52:46.040Z,1006.59
2018-11-13T16:02:46.043Z,1006.63
2018-11-13T16:12:46.029Z,1006.77
2018-11-13T16:22:46.852Z,1006.94
2018-11-13T16:32:45.922Z,1007.10
2018-11-13T16:42:46.013Z,1007.25
2018-11-13T16:52:45.971Z,1007.28
2018-11-13T17:02:45.973Z,1007.28
2018-11-13T17:12:45.984Z,1007.27
2018-11-13T17:22:46.209Z,1007.32
2018-11-13T17:32:46.057Z,1007.38
2018-11-13T17:42:46.185Z,1007.41
2018-11-13T17:52:46.095Z,1007.47
2018-11-13T18:02:46.011Z,1007.56
2018-11-13T18:12:46.825Z,1007.71
2018-11-13T18:22:46.110Z,1007.76
2018-11-13T18:32:45.959Z,1007.85
2018-11-13T18:42:45.942Z,1008.01
2018-11-13T18:52:46.003Z,1008.08
2018-11-13T19:02:45.903Z,1008.09
2018-11-13T19:12:46.171Z,1008.19
2018-11-13T19:22:45.922Z,1008.24
2018-11-13T19:32:45.984Z,1008.24
2018-11-13T19:42:46.750Z,1008.32
2018-11-13T19:52:46.591Z,1008.43
2018-11-13T20:02:45.934Z,1008.38
2018-11-13T20:12:46.017Z,1008.44
2018-11-13T20:22:45.981Z,1008.57
2018-11-13T20:32:46.338Z,1008.62
2018-11-13T20:42:45.963Z,1008.70
2018-11-13T20:52:45.944Z,1008.58
2018-11-13T21:02:45.982Z,1008.57
2018-11-13T21:12:45.951Z,1008.65
2018-11-13T21:22:45.980Z,1008.65
2018-11-13T21:32:45.977Z,1008.82
2018-11-13T21:42:45.887Z,1008.82
2018-11-13T21:52:45.981Z,1008.89
2018-11-13T22:02:46.286Z,1008.85
2018-11-13T22:12:47.545Z,1008.94
2018-11-13T22:22:45.917Z,1008.91
2018-11-13T22:32:46.395Z,1009.01
2018-11-13T22:42:47.367Z,1009.12
2018-11-13T22:52:45.944Z,1009.05
2018-11-13T23:02:45.952Z,1008.99
2018-11-13T23:12:46.090Z,1009.07
2018-11-13T23:22:46.190Z,1009.11
2018-11-13T23:32:49.492Z,1009.16
2018-11-13T23:42:48.882Z,1009.24
2018-11-13T23:52:51.458Z,1009.22
